createdAt,value
2023-02-14T00:08:02.112Z,5.70
2023-02-14T00:18:05.493Z,5.60
2023-02-14T00:28:07.433Z,5.50
2023-02-14T00:38:10.723Z,5.60
2023-02-14T00:48:12.681Z,5.50
2023-02-14T00:58:16.001Z,5.40
2023-02-14T01:08:18.014Z,5.30
2023-02-14T01:18:21.347Z,5.20
2023-02-14T01:28:23.320Z,5.20
2023-02-14T01:38:26.677Z,5.20
2023-02-14T01:48:28.696Z,5.10
2023-02-14T01:58:34.562Z,5.00
2023-02-14T02:08:41.945Z,4.90
2023-02-14T02:18:58.377Z,4.90
2023-02-14T02:29:35.898Z,4.70
2023-02-14T02:39:54.144Z,4.60
2023-02-14T02:50:03.623Z,4.40
2023-02-14T03:00:09.589Z,4.40
2023-02-14T03:10:14.072Z,4.30
2023-02-14T03:20:23.361Z,4.20
2023-02-14T03:30:32.705Z,4.10
2023-02-14T03:40:41.713Z,3.90
2023-02-14T03:50:47.830Z,3.70
2023-02-14T04:00:54.847Z,3.60
2023-02-14T04:10:59.149Z,3.60
2023-02-14T04:21:02.719Z,3.70
2023-02-14T04:31:05.728Z,3.70
2023-02-14T04:41:09.120Z,3.60
2023-02-14T04:51:11.070Z,3.50
2023-02-14T05:01:14.459Z,3.40
2023-02-14T05:11:16.385Z,3.20
2023-02-14T05:21:19.956Z,3.20
2023-02-14T05:31:22.006Z,3.20
2023-02-14T05:41:25.501Z,3.10
2023-02-14T05:51:27.438Z,2.80
2023-02-14T06:01:31.036Z,2.50
2023-02-14T06:11:33.033Z,2.50
2023-02-14T06:21:36.634Z,2.50
2023-02-14T06:31:38.702Z,2.40
2023-02-14T06:41:42.055Z,2.30
2023-02-14T06:51:44.054Z,2.20
2023-02-14T07:01:47.516Z,2.30
2023-02-14T07:11:49.480Z,2.30
2023-02-14T07:21:52.819Z,2.10
2023-02-14T07:31:54.906Z,2.00
2023-02-14T07:41:58.329Z,2.10
2023-02-14T07:52:00.538Z,2.10
2023-02-14T08:02:03.962Z,2.20
2023-02-14T08:12:06.318Z,2.40
2023-02-14T08:22:09.839Z,2.70
2023-02-14T08:32:11.926Z,3.00
2023-02-14T08:42:15.332Z,3.40
2023-02-14T08:52:17.286Z,4.00
2023-02-14T09:02:20.576Z,4.50
2023-02-14T09:12:22.668Z,5.20
2023-02-14T09:22:26.057Z,6.10
2023-02-14T09:32:28.159Z,9.20
2023-02-14T09:42:51.550Z,12.10
2023-02-14T09:52:57.257Z,14.10
2023-02-14T10:03:15.931Z,15.50
2023-02-14T10:13:26.990Z,17.10
2023-02-14T10:23:34.999Z,17.80
2023-02-14T10:33:38.295Z,18.40
2023-02-14T10:43:51.563Z,18.70
2023-02-14T10:54:04.391Z,19.00
2023-02-14T11:04:09.472Z,17.30
2023-02-14T11:14:26.922Z,16.40
2023-02-14T11:24:33.781Z,15.50
2023-02-14T11:34:38.603Z,14.70
2023-02-14T11:44:55.048Z,14.20
2023-02-14T11:54:58.401Z,13.90
2023-02-14T12:05:05.219Z,13.60
2023-02-14T12:15:25.833Z,13.30
2023-02-14T12:25:39.813Z,13.30
2023-02-14T12:35:52.247Z,13.30
2023-02-14T12:46:21.599Z,13.20
2023-02-14T12:56:36.237Z,13.30
2023-02-14T13:06:43.962Z,13.50
2023-02-14T13:16:53.556Z,13.60
2023-02-14T13:27:00.379Z,13.60
2023-02-14T13:37:07.206Z,13.50
2023-02-14T13:47:17.502Z,13.50
2023-02-14T13:57:31.521Z,13.50
2023-02-14T14:07:35.118Z,13.60
2023-02-14T14:17:38.644Z,13.60
2023-02-14T14:27:44.561Z,13.70
2023-02-14T14:37:49.156Z,13.60
2023-02-14T14:47:54.389Z,13.70
2023-02-14T14:57:58.324Z,13.70
2023-02-14T15:08:15.719Z,13.90
2023-02-14T15:18:18.339Z,14.00
2023-02-14T15:28:33.244Z,14.20
2023-02-14T15:38:38.371Z,14.10
2023-02-14T15:48:42.251Z,13.90
2023-02-14T15:58:45.067Z,13.80
2023-02-14T16:08:54.939Z,13.60
2023-02-14T16:18:56.822Z,13.30
2023-02-14T16:29:02.465Z,13.00
2023-02-14T16:39:05.498Z,12.60
2023-02-14T16:49:08.919Z,12.20
2023-02-14T16:59:10.944Z,12.00
2023-02-14T17:09:17.204Z,11.60
2023-02-14T17:19:19.274Z,11.10
2023-02-14T17:29:22.662Z,10.60
2023-02-14T17:39:24.614Z,10.20
2023-02-14T17:49:28.263Z,9.80
2023-02-14T17:59:30.572Z,9.60
2023-02-14T18:09:33.928Z,9.10
2023-02-14T18:19:35.862Z,8.90
2023-02-14T18:29:39.246Z,8.50
2023-02-14T18:39:41.219Z,8.30
2023-02-14T18:49:44.567Z,8.10
2023-02-14T19:22:00.802Z,7.50
2023-02-14T19:32:02.801Z,7.20
2023-02-14T19:42:06.248Z,6.90
2023-02-14T20:03:13.064Z,6.90
2023-02-14T20:13:15.159Z,7.00
2023-02-14T20:23:18.494Z,7.00
2023-02-14T20:33:23.216Z,6.90
2023-02-14T20:43:26.534Z,6.50
2023-02-14T20:53:33.216Z,6.20
2023-02-14T21:03:37.111Z,5.90
2023-02-14T21:13:39.697Z,5.60
2023-02-14T21:23:43.011Z,5.30
2023-02-14T21:33:45.001Z,4.90
2023-02-14T21:43:51.700Z,4.70
2023-02-14T21:53:54.420Z,4.40
2023-02-14T22:03:58.362Z,4.30
2023-02-14T22:14:00.618Z,4.00
2023-02-14T22:24:04.576Z,3.80
2023-02-14T22:34:08.102Z,3.80
2023-02-14T22:44:12.758Z,3.50
2023-02-14T22:54:15.715Z,3.40
2023-02-14T23:04:21.036Z,3.30
2023-02-14T23:14:22.944Z,3.20
2023-02-14T23:24:26.251Z,3.00
2023-02-14T23:34:29.753Z,2.80
2023-02-14T23:44:33.826Z,2.70
2023-02-14T23:54:36.365Z,2.70
